createdAt,value
2019-06-26T00:00:23.648Z,24.57
2019-06-26T00:02:54.153Z,24.60
2019-06-26T00:05:24.608Z,24.51
2019-06-26T00:07:55.146Z,24.62
2019-06-26T00:10:25.612Z,24.73
2019-06-26T00:12:56.101Z,24.68
2019-06-26T00:15:26.698Z,24.65
2019-06-26T00:17:57.159Z,24.70
2019-06-26T00:20:27.783Z,24.70
2019-06-26T00:22:58.250Z,24.74
2019-06-26T00:25:28.850Z,24.77
2019-06-26T00:27:59.338Z,24.81
2019-06-26T00:30:29.824Z,24.86
2019-06-26T00:33:00.273Z,24.94
2019-06-26T00:35:30.726Z,24.81
2019-06-26T00:38:01.213Z,24.83
2019-06-26T00:40:31.731Z,24.79
2019-06-26T00:43:02.222Z,24.65
2019-06-26T00:45:32.681Z,24.64
2019-06-26T00:48:03.173Z,24.75
2019-06-26T00:50:33.631Z,24.74
2019-06-26T00:53:04.225Z,24.65
2019-06-26T00:55:34.694Z,24.74
2019-06-26T00:58:05.385Z,24.69
2019-06-26T01:00:40.919Z,24.67
2019-06-26T01:03:11.380Z,24.70
2019-06-26T01:05:41.868Z,24.61
2019-06-26T01:08:12.316Z,24.61
2019-06-26T01:10:43.023Z,24.50
2019-06-26T01:13:13.691Z,24.55
2019-06-26T01:15:44.324Z,24.56
2019-06-26T01:18:14.814Z,24.62
2019-06-26T01:20:45.273Z,24.68
2019-06-26T01:23:15.756Z,24.69
2019-06-26T01:25:46.228Z,24.51
2019-06-26T01:28:16.719Z,24.59
2019-06-26T01:30:47.169Z,24.70
2019-06-26T01:33:17.665Z,24.65
2019-06-26T01:35:48.224Z,24.63
2019-06-26T01:38:18.725Z,24.59
2019-06-26T01:40:49.185Z,24.65
2019-06-26T01:43:19.684Z,24.68
2019-06-26T01:45:50.189Z,24.70
2019-06-26T01:48:20.643Z,24.73
2019-06-26T01:50:51.131Z,24.67
2019-06-26T01:53:21.634Z,24.63
2019-06-26T01:55:52.130Z,24.59
2019-06-26T01:58:22.600Z,24.55
2019-06-26T02:00:53.215Z,24.59
2019-06-26T02:03:23.741Z,24.41
2019-06-26T02:05:54.201Z,24.53
2019-06-26T02:08:24.697Z,24.59
2019-06-26T02:10:55.173Z,24.52
2019-06-26T02:13:25.626Z,24.51
2019-06-26T02:15:56.142Z,23.68
2019-06-26T02:18:45.683Z,24.50
2019-06-26T02:21:16.288Z,24.52
2019-06-26T02:23:46.850Z,24.51
2019-06-26T02:26:17.323Z,24.38
2019-06-26T02:28:47.805Z,24.15
2019-06-26T02:31:18.269Z,24.06
2019-06-26T02:33:48.751Z,24.04
2019-06-26T02:36:19.193Z,23.30
2019-06-26T02:38:49.726Z,24.06
2019-06-26T02:41:20.226Z,23.90
2019-06-26T02:43:50.908Z,23.89
2019-06-26T02:46:21.593Z,23.85
2019-06-26T02:48:52.067Z,23.77
2019-06-26T02:51:22.773Z,23.81
2019-06-26T02:53:53.328Z,23.75
2019-06-26T02:56:23.780Z,23.78
2019-06-26T02:58:54.309Z,23.75
2019-06-26T03:01:24.761Z,23.67
2019-06-26T03:03:55.257Z,23.75
2019-06-26T03:06:25.754Z,23.73
2019-06-26T03:08:56.218Z,23.68
2019-06-26T03:11:26.714Z,23.61
2019-06-26T03:13:57.173Z,23.71
2019-06-26T03:16:27.677Z,23.70
2019-06-26T03:18:58.181Z,23.72
2019-06-26T03:21:28.647Z,23.73
2019-06-26T03:23:59.133Z,23.61
2019-06-26T03:26:29.738Z,23.71
2019-06-26T03:29:00.244Z,23.85
2019-06-26T03:31:30.699Z,23.97
2019-06-26T03:34:01.249Z,24.03
2019-06-26T03:36:31.832Z,24.19
2019-06-26T03:39:02.456Z,24.16
2019-06-26T03:41:32.953Z,24.21
2019-06-26T03:44:03.413Z,24.21
2019-06-26T03:46:34.013Z,24.12
2019-06-26T03:49:04.605Z,24.07
2019-06-26T03:51:35.078Z,24.12
2019-06-26T03:54:05.570Z,24.31
2019-06-26T03:56:36.068Z,24.35
2019-06-26T03:59:06.580Z,24.36
2019-06-26T04:01:37.088Z,24.25
2019-06-26T04:04:07.531Z,24.52
2019-06-26T04:06:38.046Z,24.72
2019-06-26T04:09:08.645Z,24.83
2019-06-26T04:11:39.090Z,24.89
2019-06-26T04:14:09.589Z,25.10
2019-06-26T04:16:40.095Z,25.27
2019-06-26T04:19:10.580Z,25.41
2019-06-26T04:21:41.038Z,25.45
2019-06-26T04:24:11.538Z,25.71
2019-06-26T04:26:41.991Z,25.83
2019-06-26T04:29:12.478Z,25.91
2019-06-26T04:31:42.949Z,25.97
2019-06-26T04:34:13.453Z,26.03
2019-06-26T04:36:43.910Z,26.18
2019-06-26T04:39:14.413Z,26.28
2019-06-26T04:41:44.927Z,26.59
2019-06-26T04:44:15.407Z,26.78
2019-06-26T04:46:45.946Z,26.90
2019-06-26T04:49:16.406Z,27.10
2019-06-26T04:51:46.951Z,26.93
2019-06-26T04:54:17.441Z,27.08
2019-06-26T04:56:48.683Z,27.13
2019-06-26T04:59:19.863Z,27.39
2019-06-26T05:01:50.383Z,27.44
2019-06-26T05:04:20.855Z,27.79
2019-06-26T05:06:51.487Z,27.64
2019-06-26T05:09:26.660Z,28.04
2019-06-26T05:12:00.197Z,28.15
2019-06-26T05:14:30.683Z,28.31
2019-06-26T05:17:01.238Z,28.50
2019-06-26T05:19:32.433Z,28.32
2019-06-26T05:22:03.571Z,28.74
2019-06-26T05:24:34.053Z,28.73
2019-06-26T05:27:04.655Z,28.82
2019-06-26T05:29:35.448Z,28.45
2019-06-26T05:32:06.338Z,28.38
2019-06-26T05:34:36.919Z,28.19
2019-06-26T05:37:07.480Z,28.36
2019-06-26T05:39:38.253Z,28.53
2019-06-26T05:42:08.762Z,28.61
2019-06-26T05:44:39.337Z,28.91
2019-06-26T05:47:10.406Z,28.96
2019-06-26T05:49:40.876Z,29.08
2019-06-26T05:52:11.401Z,28.99
2019-06-26T05:54:41.873Z,28.81
2019-06-26T05:57:12.439Z,28.78
2019-06-26T05:59:42.939Z,28.81
2019-06-26T06:02:13.598Z,29.32
2019-06-26T06:04:44.140Z,29.11
2019-06-26T06:07:14.656Z,29.48
2019-06-26T06:09:56.438Z,29.42
2019-06-26T06:12:28.470Z,29.22
2019-06-26T06:15:01.831Z,29.23
2019-06-26T06:17:32.307Z,29.31
2019-06-26T06:20:02.979Z,29.29
2019-06-26T06:22:33.548Z,29.43
2019-06-26T06:25:04.934Z,29.42
2019-06-26T06:27:35.470Z,29.49
2019-06-26T06:30:07.019Z,29.67
2019-06-26T06:32:37.576Z,29.71
2019-06-26T06:35:10.023Z,29.50
2019-06-26T06:37:40.518Z,29.58
2019-06-26T06:40:11.387Z,29.67
2019-06-26T06:42:42.061Z,30.03
2019-06-26T06:45:13.005Z,30.05
2019-06-26T06:47:43.551Z,30.05
2019-06-26T06:50:14.414Z,30.23
2019-06-26T06:52:44.979Z,30.13
2019-06-26T06:55:15.902Z,30.54
2019-06-26T06:57:51.329Z,30.40
2019-06-26T07:00:22.510Z,30.22
2019-06-26T07:02:53.008Z,30.30
2019-06-26T07:05:23.534Z,30.80
2019-06-26T07:07:54.014Z,30.80
2019-06-26T07:10:24.650Z,30.92
2019-06-26T07:12:55.213Z,31.08
2019-06-26T07:15:25.870Z,31.29
2019-06-26T07:17:56.430Z,31.09
2019-06-26T07:20:27.198Z,31.26
2019-06-26T07:22:57.781Z,31.43
2019-06-26T07:25:28.289Z,31.44
2019-06-26T07:28:01.795Z,31.74
2019-06-26T07:30:31.014Z,31.57
2019-06-26T07:33:01.523Z,31.68
2019-06-26T07:38:03.569Z,31.96
2019-06-26T07:40:34.179Z,32.08
2019-06-26T07:43:06.269Z,32.17
2019-06-26T07:45:36.927Z,32.01
2019-06-26T07:48:07.636Z,32.06
2019-06-26T07:50:38.264Z,32.05
2019-06-26T07:53:08.757Z,32.07
2019-06-26T07:55:40.603Z,32.36
2019-06-26T07:58:11.308Z,32.18
2019-06-26T08:00:41.966Z,32.19
2019-06-26T08:03:12.426Z,32.26
2019-06-26T08:05:43.444Z,32.59
2019-06-26T08:08:14.892Z,32.53
2019-06-26T08:10:45.547Z,32.33
2019-06-26T08:13:16.513Z,32.48
2019-06-26T08:15:47.101Z,32.72
2019-06-26T08:18:17.750Z,31.86
2019-06-26T08:21:00.692Z,32.71
2019-06-26T08:23:20.579Z,32.88
2019-06-26T08:25:51.109Z,32.99
2019-06-26T08:28:21.658Z,32.85
2019-06-26T08:30:52.831Z,32.85
2019-06-26T08:33:23.611Z,32.97
2019-06-26T08:35:54.225Z,33.39
2019-06-26T08:38:24.828Z,32.69
2019-06-26T08:40:55.371Z,33.19
2019-06-26T08:43:25.956Z,33.27
2019-06-26T08:45:56.935Z,32.92
2019-06-26T08:48:39.107Z,32.54
2019-06-26T08:50:59.898Z,32.17
2019-06-26T08:53:30.378Z,32.11
2019-06-26T08:56:00.966Z,32.22
2019-06-26T08:58:31.505Z,32.01
2019-06-26T09:01:02.050Z,31.64
2019-06-26T09:03:32.618Z,32.46
2019-06-26T09:06:03.229Z,32.59
2019-06-26T09:08:33.742Z,32.67
2019-06-26T09:11:04.305Z,32.62
2019-06-26T09:13:34.810Z,32.09
2019-06-26T09:16:05.421Z,32.23
2019-06-26T09:18:36.374Z,32.63
2019-06-26T09:21:07.080Z,32.60
2019-06-26T09:23:37.694Z,32.87
2019-06-26T09:26:08.173Z,32.89
2019-06-26T09:28:38.864Z,32.86
2019-06-26T09:31:09.407Z,33.08
2019-06-26T09:33:39.889Z,33.16
2019-06-26T09:36:10.408Z,32.93
2019-06-26T09:38:41.146Z,33.00
2019-06-26T09:41:11.847Z,32.73
2019-06-26T09:43:42.296Z,32.03
2019-06-26T09:46:13.008Z,32.69
2019-06-26T09:48:52.822Z,32.51
2019-06-26T09:51:15.826Z,32.62
2019-06-26T09:53:48.006Z,32.33
2019-06-26T09:56:18.634Z,32.43
2019-06-26T09:58:49.324Z,32.21
2019-06-26T10:01:19.903Z,32.24
2019-06-26T10:03:50.402Z,32.33
2019-06-26T10:06:20.905Z,32.27
2019-06-26T10:08:54.375Z,32.31
2019-06-26T10:11:23.878Z,32.31
2019-06-26T10:13:54.493Z,32.28
2019-06-26T10:16:24.983Z,32.41
2019-06-26T10:19:09.601Z,32.36
2019-06-26T10:21:28.096Z,32.51
2019-06-26T10:23:58.743Z,32.71
2019-06-26T10:26:32.369Z,32.76
2019-06-26T10:29:01.566Z,32.82
2019-06-26T10:31:32.064Z,33.05
2019-06-26T10:34:02.584Z,33.05
2019-06-26T10:36:33.139Z,32.90
2019-06-26T10:39:04.080Z,33.02
2019-06-26T10:41:34.571Z,32.37
2019-06-26T10:44:05.391Z,32.73
2019-06-26T10:46:35.981Z,32.64
2019-06-26T10:49:06.780Z,32.74
2019-06-26T10:51:37.467Z,32.64
2019-06-26T10:54:08.127Z,32.86
2019-06-26T10:56:38.787Z,32.88
2019-06-26T10:59:09.464Z,32.79
2019-06-26T11:01:40.168Z,32.71
2019-06-26T11:04:10.723Z,33.03
2019-06-26T11:06:41.263Z,33.20
2019-06-26T11:09:11.868Z,33.34
2019-06-26T11:11:43.368Z,33.35
2019-06-26T11:14:14.196Z,33.37
2019-06-26T11:16:44.925Z,33.42
2019-06-26T11:19:15.512Z,33.20
2019-06-26T11:21:46.079Z,33.16
2019-06-26T11:24:17.198Z,32.84
2019-06-26T11:26:47.660Z,32.79
2019-06-26T11:29:18.181Z,32.81
2019-06-26T11:31:49.037Z,32.78
2019-06-26T11:34:19.844Z,32.90
2019-06-26T11:37:03.116Z,32.91
2019-06-26T11:39:23.724Z,32.99
2019-06-26T11:41:54.382Z,33.23
2019-06-26T11:44:25.298Z,33.19
2019-06-26T11:46:56.482Z,33.23
2019-06-26T11:49:27.012Z,33.35
2019-06-26T11:51:57.793Z,33.45
2019-06-26T11:54:28.421Z,33.50
2019-06-26T11:56:59.114Z,33.62
2019-06-26T11:59:29.673Z,33.60
2019-06-26T12:02:00.325Z,33.72
2019-06-26T12:04:30.866Z,33.19
2019-06-26T12:07:01.433Z,32.92
2019-06-26T12:09:31.987Z,32.79
2019-06-26T12:12:02.599Z,33.01
2019-06-26T12:14:33.096Z,33.00
2019-06-26T12:17:03.601Z,33.20
2019-06-26T12:19:34.085Z,33.08
2019-06-26T12:22:04.695Z,32.91
2019-06-26T12:24:35.217Z,32.84
2019-06-26T12:27:05.859Z,32.55
2019-06-26T12:29:36.340Z,32.75
2019-06-26T12:32:06.863Z,32.72
2019-06-26T12:34:37.479Z,32.79
2019-06-26T12:37:08.191Z,32.91
2019-06-26T12:39:38.709Z,32.49
2019-06-26T12:42:09.254Z,31.92
2019-06-26T12:44:39.827Z,32.35
2019-06-26T12:47:10.348Z,32.36
2019-06-26T12:49:40.962Z,32.38
2019-06-26T12:52:11.594Z,30.95
2019-06-26T12:54:42.187Z,30.47
2019-06-26T12:57:13.098Z,30.11
2019-06-26T12:59:56.930Z,29.52
2019-06-26T13:02:16.057Z,29.21
2019-06-26T13:04:46.622Z,28.74
2019-06-26T13:07:17.147Z,28.53
2019-06-26T13:09:47.625Z,28.10
2019-06-26T13:12:18.342Z,27.91
2019-06-26T13:14:49.169Z,27.61
2019-06-26T13:17:19.841Z,27.48
2019-06-26T13:19:50.471Z,27.47
2019-06-26T13:22:21.109Z,27.11
2019-06-26T13:24:51.676Z,26.10
2019-06-26T13:27:22.412Z,26.70
2019-06-26T13:29:52.948Z,26.59
2019-06-26T13:32:23.885Z,26.89
2019-06-26T13:34:54.434Z,26.96
2019-06-26T13:37:24.909Z,26.93
2019-06-26T13:39:55.424Z,26.77
2019-06-26T13:42:26.021Z,26.89
2019-06-26T13:44:56.532Z,27.21
2019-06-26T13:47:27.360Z,27.18
2019-06-26T13:49:57.938Z,27.14
2019-06-26T13:52:28.576Z,26.67
2019-06-26T13:54:59.294Z,25.96
2019-06-26T13:57:29.960Z,25.85
2019-06-26T14:00:00.498Z,25.65
2019-06-26T14:02:31.175Z,25.52
2019-06-26T14:05:01.919Z,25.59
2019-06-26T14:07:32.733Z,25.55
2019-06-26T14:10:03.378Z,25.40
2019-06-26T14:12:34.095Z,25.54
2019-06-26T14:15:04.771Z,25.61
2019-06-26T14:17:35.331Z,25.57
2019-06-26T14:20:07.727Z,25.69
2019-06-26T14:22:38.361Z,25.83
2019-06-26T14:25:09.277Z,25.96
2019-06-26T14:27:39.791Z,26.11
2019-06-26T14:30:10.766Z,26.41
2019-06-26T14:32:41.377Z,26.66
2019-06-26T14:35:11.929Z,26.81
2019-06-26T14:37:42.416Z,27.09
2019-06-26T14:40:13.066Z,27.37
2019-06-26T14:42:43.565Z,27.54
2019-06-26T14:45:14.226Z,27.35
2019-06-26T14:47:44.707Z,27.39
2019-06-26T14:50:16.400Z,27.60
2019-06-26T14:52:46.893Z,27.90
2019-06-26T14:55:17.571Z,28.15
2019-06-26T14:57:48.063Z,28.40
2019-06-26T15:00:19.054Z,28.62
2019-06-26T15:02:49.515Z,28.78
2019-06-26T15:05:20.169Z,28.93
2019-06-26T15:07:50.658Z,29.01
2019-06-26T15:10:21.253Z,29.14
2019-06-26T15:12:51.711Z,29.21
2019-06-26T15:15:22.300Z,29.28
2019-06-26T15:17:52.768Z,29.24
2019-06-26T15:20:23.353Z,29.25
2019-06-26T15:22:53.893Z,29.36
2019-06-26T15:25:24.375Z,29.42
2019-06-26T15:27:54.849Z,29.47
2019-06-26T15:30:25.490Z,29.40
2019-06-26T15:32:55.983Z,29.31
2019-06-26T15:35:26.433Z,29.35
2019-06-26T15:37:57.006Z,29.27
2019-06-26T15:40:27.580Z,29.24
2019-06-26T15:42:58.086Z,29.16
2019-06-26T15:45:28.526Z,29.11
2019-06-26T15:47:59.012Z,29.09
2019-06-26T15:50:29.598Z,29.09
2019-06-26T15:53:00.078Z,29.10
2019-06-26T15:55:30.557Z,29.08
2019-06-26T15:58:01.021Z,29.06
2019-06-26T16:00:31.559Z,29.04
2019-06-26T16:03:02.019Z,28.93
2019-06-26T16:05:32.536Z,28.99
2019-06-26T16:08:02.967Z,28.89
2019-06-26T16:10:34.711Z,28.93
2019-06-26T16:13:05.409Z,28.80
2019-06-26T16:15:36.398Z,28.85
2019-06-26T16:18:25.055Z,28.83
2019-06-26T16:20:55.545Z,28.77
2019-06-26T16:23:25.996Z,28.70
2019-06-26T16:25:56.436Z,28.70
2019-06-26T16:28:26.932Z,28.68
2019-06-26T16:30:57.391Z,28.64
2019-06-26T16:33:27.867Z,28.49
2019-06-26T16:35:58.473Z,28.48
2019-06-26T16:38:28.952Z,28.45
2019-06-26T16:40:59.400Z,28.39
2019-06-26T16:43:29.905Z,28.41
2019-06-26T16:46:00.350Z,28.25
2019-06-26T16:48:30.827Z,28.22
2019-06-26T16:51:01.274Z,28.17
2019-06-26T16:53:35.228Z,28.07
2019-06-26T16:56:03.949Z,28.06
2019-06-26T16:58:34.385Z,28.05
2019-06-26T17:01:05.017Z,27.97
2019-06-26T17:03:35.458Z,27.98
2019-06-26T17:06:05.919Z,27.87
2019-06-26T17:08:36.417Z,27.85
2019-06-26T17:11:07.059Z,27.82
2019-06-26T17:13:37.534Z,27.64
2019-06-26T17:16:08.025Z,27.60
2019-06-26T17:18:38.515Z,27.48
2019-06-26T17:21:08.956Z,27.38
2019-06-26T17:23:39.437Z,27.39
2019-06-26T17:26:09.874Z,27.27
2019-06-26T17:28:40.342Z,27.07
2019-06-26T17:31:10.830Z,27.08
2019-06-26T17:33:41.273Z,27.06
2019-06-26T17:36:11.773Z,27.07
2019-06-26T17:38:42.261Z,26.96
2019-06-26T17:41:12.788Z,26.99
2019-06-26T17:43:43.270Z,26.82
2019-06-26T17:46:13.714Z,26.90
2019-06-26T17:48:44.272Z,26.85
2019-06-26T17:51:14.930Z,26.71
2019-06-26T17:53:45.408Z,26.57
2019-06-26T17:56:15.842Z,26.63
2019-06-26T17:58:46.349Z,26.47
2019-06-26T18:01:16.825Z,26.43
2019-06-26T18:03:47.271Z,26.13
2019-06-26T18:06:17.868Z,26.12
2019-06-26T18:08:48.420Z,26.07
2019-06-26T18:11:18.864Z,25.99
2019-06-26T18:13:49.349Z,25.87
2019-06-26T18:16:19.831Z,25.78
2019-06-26T18:18:50.279Z,25.90
2019-06-26T18:21:20.833Z,25.89
2019-06-26T18:23:51.273Z,25.82
2019-06-26T18:26:21.789Z,25.99
2019-06-26T18:28:52.328Z,25.88
2019-06-26T18:31:22.772Z,25.82
2019-06-26T18:33:53.225Z,25.86
2019-06-26T18:36:23.666Z,25.79
2019-06-26T18:38:54.146Z,25.86
2019-06-26T18:41:24.635Z,25.71
2019-06-26T18:43:55.118Z,25.65
2019-06-26T18:46:25.584Z,25.71
2019-06-26T18:48:56.064Z,25.83
2019-06-26T18:51:26.523Z,25.80
2019-06-26T18:53:57.011Z,25.78
2019-06-26T18:56:27.480Z,25.75
2019-06-26T18:58:57.971Z,25.65
2019-06-26T19:01:28.606Z,25.69
2019-06-26T19:03:59.090Z,25.69
2019-06-26T19:06:29.585Z,25.70
2019-06-26T19:09:00.053Z,25.70
2019-06-26T19:11:30.560Z,25.68
2019-06-26T19:14:01.337Z,25.73
2019-06-26T19:16:31.852Z,25.65
2019-06-26T19:19:02.310Z,25.65
2019-06-26T19:21:36.894Z,25.53
2019-06-26T19:24:10.014Z,24.87
2019-06-26T19:26:37.363Z,25.56
2019-06-26T19:29:08.166Z,25.52
2019-06-26T19:31:38.640Z,25.54
2019-06-26T19:34:09.180Z,25.54
2019-06-26T19:36:49.550Z,25.40
2019-06-26T19:39:11.874Z,25.61
2019-06-26T19:41:42.362Z,25.49
2019-06-26T19:44:13.435Z,25.26
2019-06-26T19:46:44.188Z,25.23
2019-06-26T19:49:14.815Z,25.17
2019-06-26T19:51:45.549Z,25.08
2019-06-26T19:54:26.481Z,25.16
2019-06-26T19:56:48.266Z,25.07
2019-06-26T19:59:18.706Z,25.10
2019-06-26T20:01:51.384Z,24.95
2019-06-26T20:05:13.826Z,24.91
2019-06-26T20:07:44.061Z,24.98
2019-06-26T20:10:14.615Z,24.90
2019-06-26T20:12:44.802Z,24.94
2019-06-26T20:15:14.969Z,25.02
2019-06-26T20:17:45.146Z,25.02
2019-06-26T20:20:15.504Z,24.97
2019-06-26T20:22:45.722Z,24.78
2019-06-26T20:25:16.272Z,24.81
2019-06-26T20:27:46.483Z,24.86
2019-06-26T20:30:16.767Z,24.81
2019-06-26T20:32:46.954Z,24.67
2019-06-26T20:35:17.195Z,24.76
2019-06-26T20:37:47.316Z,24.65
2019-06-26T20:40:17.486Z,24.70
2019-06-26T20:42:47.635Z,24.57
2019-06-26T20:45:17.924Z,24.60
2019-06-26T20:47:48.082Z,24.74
2019-06-26T20:50:18.269Z,24.78
2019-06-26T20:52:48.448Z,24.69
2019-06-26T20:55:18.599Z,24.76
2019-06-26T20:57:48.736Z,24.76
2019-06-26T21:00:22.369Z,24.76
2019-06-26T21:02:54.029Z,24.86
2019-06-26T21:05:22.658Z,24.86
2019-06-26T21:07:52.804Z,24.87
2019-06-26T21:10:22.978Z,24.73
2019-06-26T21:12:53.167Z,24.53
2019-06-26T21:15:23.301Z,24.42
2019-06-26T21:17:53.474Z,24.43
2019-06-26T21:20:23.618Z,24.35
2019-06-26T21:22:53.794Z,24.36
2019-06-26T21:25:23.970Z,24.27
2019-06-26T21:27:54.137Z,24.27
2019-06-26T21:30:24.388Z,24.38
2019-06-26T21:32:54.532Z,24.38
2019-06-26T21:35:24.722Z,24.27
2019-06-26T21:37:54.878Z,24.33
2019-06-26T21:40:24.999Z,24.27
2019-06-26T21:42:55.174Z,24.11
2019-06-26T21:45:25.374Z,24.01
2019-06-26T21:47:55.514Z,24.02
2019-06-26T21:50:28.837Z,24.14
2019-06-26T21:52:57.785Z,24.07
2019-06-26T21:55:34.159Z,24.00
2019-06-26T21:58:00.145Z,23.77
2019-06-26T22:00:32.677Z,23.73
2019-06-26T22:03:03.019Z,23.73
2019-06-26T22:05:33.658Z,23.62
2019-06-26T22:08:04.068Z,23.63
2019-06-26T22:10:34.513Z,23.51
2019-06-26T22:13:05.524Z,23.48
2019-06-26T22:15:35.922Z,23.46
2019-06-26T22:18:06.287Z,23.53
2019-06-26T22:20:36.595Z,23.39
2019-06-26T22:23:06.948Z,23.37
2019-06-26T22:25:50.307Z,23.37
2019-06-26T22:28:09.321Z,23.31
2019-06-26T22:30:39.635Z,23.15
2019-06-26T22:33:10.023Z,23.23
2019-06-26T22:35:40.600Z,23.26
2019-06-26T22:38:11.021Z,23.31
2019-06-26T22:40:41.376Z,23.44
2019-06-26T22:43:11.694Z,23.45
2019-06-26T22:45:42.111Z,23.34
2019-06-26T22:48:12.517Z,23.22
2019-06-26T22:50:42.886Z,23.19
2019-06-26T22:53:13.365Z,23.24
2019-06-26T22:55:44.085Z,23.28
2019-06-26T22:58:14.566Z,23.19
2019-06-26T23:00:47.752Z,23.13
2019-06-26T23:03:17.181Z,23.24
2019-06-26T23:05:47.761Z,23.19
2019-06-26T23:08:18.214Z,23.15
2019-06-26T23:10:48.825Z,23.17
2019-06-26T23:13:19.237Z,23.25
2019-06-26T23:15:49.744Z,23.26
2019-06-26T23:18:20.273Z,23.25
2019-06-26T23:20:50.754Z,23.30
2019-06-26T23:23:21.191Z,23.37
2019-06-26T23:25:51.661Z,23.38
2019-06-26T23:28:22.118Z,23.36
2019-06-26T23:30:52.651Z,23.38
2019-06-26T23:33:23.093Z,23.35
2019-06-26T23:35:53.559Z,23.15
2019-06-26T23:38:24.170Z,23.15
2019-06-26T23:40:54.653Z,23.13
2019-06-26T23:43:25.132Z,23.21
2019-06-26T23:45:55.641Z,23.09
2019-06-26T23:48:26.105Z,22.98
2019-06-26T23:50:56.545Z,23.04
2019-06-26T23:53:27.033Z,23.07
2019-06-26T23:55:57.499Z,23.12
2019-06-26T23:58:28.395Z,23.15
